If you wish to contribute or participate in the discussions about articles you are invited to join SKYbrary as a registered user

 Actions

Kaneohe Bay MCAS (Marion E. Carl Field) Airport

From SKYbrary Wiki

PHNG
Airport
ICAO: PHNG – IATA: NGF
Summary
Name Kaneohe Bay MCAS (Marion E. Carl Field) Airport
Region
Territory Hawaii US.gif
Location , Hawaii
Serving Kaneohe Bay
Elevation 7.315 m
24 ft
24 ft7.315 m
Type medium airport
Coordinates 21° 27' 1.63" N, 157° 46' 4.80" W
Runways
Designator Length Width Surface ROPS
4/22 2369 m7,772.31 ft
61 m200.131 ft
ASP yes/yes


METAR
Observation PHNG 220857Z 08008KT 6SM HZ BKN025 BKN030 OVC075 28/22 A3001 RMK AO2 SLP157 T02780217 50006
Station Kaneohe, Marine Corps Air Station
Date/Time 22 October 2019 08:57:00
Wind direction 80°
Wind speed 08 kts
Lowest cloud amount broken clouds
Temperature 27.8°C
Dew point 21.7°C
Humidity 69%
QNH hPa
Weather condition haze